This is the latest recevied weather packets stored in our database for station/object EFTP. If no packets are shown the sender has not sent any weather packets the latest 10 day(s).
| Time | Temp. | Humidity | Pressure | Rain* | Wind** | Luminosity | Snow |
|---|---|---|---|---|---|---|---|
| 1777556815 | 16.11° C | 47% | 1019.6 hPa | - | - | - | - |
| 1777555615 | 15.56° C | 47% | 1019.6 hPa | - | - | - | - |
| 1777554414 | 15.56° C | 45% | 1019.7 hPa | - | - | - | - |
| 1777553215 | 16.11° C | 46% | 1019.6 hPa | - | - | - | - |
| 1777552015 | 16.67° C | 46% | 1019.8 hPa | - | - | - | - |
| 1777550815 | 15.56° C | 47% | 1019.9 hPa | - | - | - | - |
| 1777549615 | 15° C | 48% | 1019.9 hPa | - | - | - | - |
| 1777548415 | 15° C | 50% | 1020 hPa | - | - | - | - |
| 1777547215 | 13.89° C | 52% | 1020.2 hPa | - | - | - | - |
| 1777546015 | 13.89° C | 51% | 1020 hPa | - | - | - | - |
| 1777544815 | 13.33° C | 54% | 1020.3 hPa | - | - | - | - |
| 1777543615 | 13.33° C | 53% | 1020.4 hPa | - | - | - | - |
| 1777542414 | 12.22° C | 58% | 1020.7 hPa | - | - | - | - |
| 1777541215 | 11.67° C | 60% | 1020.7 hPa | - | - | - | - |
| 1777540014 | 11.67° C | 61% | 1020.6 hPa | - | - | - | - |
| 1777538814 | 11.11° C | 62% | 1020.8 hPa | - | - | - | - |
| 1777537614 | 10.56° C | 64% | 1020.9 hPa | - | - | - | - |
| 1777536414 | 10° C | 66% | 1020.7 hPa | - | - | - | - |
| 1777535215 | 9.44° C | 69% | 1020.8 hPa | - | - | - | - |
| 1777534014 | 9.44° C | 71% | 1020.7 hPa | - | - | - | - |
| 1777532814 | 8.33° C | 76% | 1020.8 hPa | - | - | - | - |
| 1777531614 | 7.78° C | 78% | 1020.9 hPa | - | - | - | - |
| 1777530414 | 6.67° C | 82% | 1020.9 hPa | - | - | - | - |
| 1777529214 | 5.56° C | 87% | 1021 hPa | - | - | - | - |
| 1777528014 | 5° C | 89% | 1020.9 hPa | - | - | - | - |
* Rain since midnight (hover to see other rain measurements)
** Current wind speed in m/s (hover to see current wind gust speed)